Terminal Aerodrome Forecast
Issued by NWS Charleston, WV

Current Version | Previous Version | Text Only | Print | Product List | Glossary Off
Versions: 1 2 3 4 5 6 7 8 9 10 11 12 13 14 15 16 17 18 19 20 21 22 23 24 25

000
FTUS41 KRLX 181134
TAFCRW
TAF
KCRW 181134Z 1812/1912 00000KT 6SM BR SKC
      TEMPO 1812/1813 3SM BR SCT001
     FM181400 20005KT P6SM SKC
     FM191000 00000KT 3SM BR FEW001=

USA.gov is the U.S. government's official web portal to all federal, state and local government web resources and services.